createdAt,value
2018-11-20T00:02:17.824Z,4.45
2018-11-20T00:07:38.564Z,4.43
2018-11-20T00:13:09.821Z,4.43
2018-11-20T00:18:30.770Z,4.45
2018-11-20T00:24:11.085Z,4.44
2018-11-20T00:29:32.167Z,4.43
2018-11-20T00:34:48.343Z,4.35
2018-11-20T00:39:57.682Z,4.36
2018-11-20T00:45:19.651Z,4.39
2018-11-20T00:50:53.609Z,4.38
2018-11-20T00:56:52.756Z,4.33
2018-11-20T01:02:17.748Z,4.32
2018-11-20T01:07:35.934Z,4.28
2018-11-20T01:12:48.053Z,4.20
2018-11-20T01:18:09.199Z,4.16
2018-11-20T01:23:31.308Z,4.12
2018-11-20T01:28:55.406Z,4.11
2018-11-20T01:34:20.716Z,4.10
2018-11-20T01:39:38.661Z,4.08
2018-11-20T01:45:03.932Z,4.04
2018-11-20T01:50:24.757Z,4.01
2018-11-20T01:55:45.920Z,4.03
2018-11-20T02:01:13.885Z,4.04
2018-11-20T02:06:34.128Z,3.96
2018-11-20T02:11:55.076Z,3.93
2018-11-20T02:17:17.886Z,3.95
2018-11-20T02:22:38.214Z,3.98
2018-11-20T02:27:57.075Z,3.99
2018-11-20T02:33:19.648Z,3.95
2018-11-20T02:38:44.921Z,3.96
2018-11-20T02:44:00.663Z,3.92
2018-11-20T02:49:25.135Z,3.93
2018-11-20T02:54:49.349Z,3.91
2018-11-20T03:00:10.298Z,3.92
2018-11-20T03:05:30.916Z,3.91
2018-11-20T03:10:44.928Z,3.93
2018-11-20T03:16:05.701Z,3.91
2018-11-20T03:21:17.765Z,3.91
2018-11-20T03:26:27.055Z,3.86
2018-11-20T03:31:41.593Z,3.82
2018-11-20T03:37:03.738Z,3.83
2018-11-20T03:42:18.991Z,3.82
2018-11-20T03:47:40.003Z,3.83
2018-11-20T03:52:53.026Z,3.82
2018-11-20T03:58:30.774Z,3.84
2018-11-20T04:04:05.619Z,3.84
2018-11-20T04:09:26.532Z,3.82
2018-11-20T04:14:46.076Z,3.85
2018-11-20T04:20:11.241Z,3.80
2018-11-20T04:25:29.011Z,3.77
2018-11-20T04:31:59.107Z,3.79
2018-11-20T04:37:12.584Z,3.78
2018-11-20T04:42:44.492Z,3.74
2018-11-20T04:48:00.697Z,3.74
2018-11-20T04:53:21.884Z,3.72
2018-11-20T04:58:41.862Z,3.75
2018-11-20T05:03:59.669Z,3.73
2018-11-20T05:09:22.119Z,3.70
2018-11-20T05:14:54.151Z,3.69
2018-11-20T05:20:07.649Z,3.69
2018-11-20T05:25:29.074Z,3.69
2018-11-20T05:30:37.524Z,3.64
2018-11-20T05:35:59.381Z,3.63
2018-11-20T05:41:24.370Z,3.61
2018-11-20T05:46:44.998Z,3.63
2018-11-20T05:52:04.725Z,3.67
2018-11-20T05:57:31.064Z,3.67
2018-11-20T06:02:55.389Z,3.66
2018-11-20T06:08:16.919Z,3.69
2018-11-20T06:13:58.123Z,3.69
2018-11-20T06:19:08.980Z,3.66
2018-11-20T06:24:32.373Z,3.70
2018-11-20T06:29:54.406Z,3.75
2018-11-20T06:35:16.425Z,3.75
2018-11-20T06:40:32.073Z,3.76
2018-11-20T06:46:03.536Z,3.77
2018-11-20T06:51:17.519Z,3.79
2018-11-20T06:56:38.884Z,3.80
2018-11-20T07:01:59.917Z,3.85
2018-11-20T07:07:20.851Z,3.77
2018-11-20T07:12:56.829Z,3.78
2018-11-20T07:18:25.012Z,3.81
2018-11-20T07:23:53.296Z,3.85
2018-11-20T07:29:14.655Z,3.85
2018-11-20T07:34:29.864Z,3.85
2018-11-20T07:39:54.775Z,3.83
2018-11-20T07:45:09.480Z,3.84
2018-11-20T07:50:30.381Z,3.83
2018-11-20T07:56:04.944Z,3.82
2018-11-20T08:01:26.058Z,3.86
2018-11-20T08:06:40.080Z,3.90
2018-11-20T08:11:59.213Z,3.90
2018-11-20T08:17:21.696Z,3.90
2018-11-20T08:22:42.325Z,3.87
2018-11-20T08:28:05.419Z,3.87
2018-11-20T08:33:23.111Z,3.81
2018-11-20T08:38:48.305Z,3.83
2018-11-20T08:44:22.484Z,3.85
2018-11-20T08:49:50.304Z,3.85
2018-11-20T08:55:17.838Z,3.88
2018-11-20T09:00:43.805Z,3.90
2018-11-20T09:06:08.803Z,3.92
2018-11-20T09:11:40.281Z,3.93
2018-11-20T09:17:02.131Z,3.89
2018-11-20T09:22:24.327Z,3.85
2018-11-20T09:27:40.309Z,3.86
2018-11-20T09:33:02.549Z,3.85
2018-11-20T09:38:23.769Z,3.91
2018-11-20T09:43:58.577Z,3.92
2018-11-20T09:49:28.857Z,3.94
2018-11-20T09:54:56.422Z,3.91
2018-11-20T10:00:17.118Z,3.93
2018-11-20T10:45:01.492Z,3.96
2018-11-20T10:50:22.563Z,3.98
2018-11-20T10:55:33.690Z,4.01
2018-11-20T11:00:55.173Z,3.98
2018-11-20T11:06:15.906Z,3.99
2018-11-20T11:11:36.767Z,3.97
2018-11-20T11:16:45.269Z,3.95
2018-11-20T11:21:57.709Z,3.97
2018-11-20T11:27:18.723Z,4.01
2018-11-20T11:32:39.429Z,4.02
2018-11-20T11:38:00.985Z,4.00
2018-11-20T11:43:26.331Z,4.03
2018-11-20T11:48:44.464Z,4.01
2018-11-20T11:53:55.580Z,3.98
2018-11-20T11:59:16.389Z,3.94
2018-11-20T12:09:49.204Z,3.98
2018-11-20T12:15:18.076Z,3.97
2018-11-20T12:20:30.148Z,4.01
2018-11-20T12:25:50.650Z,4.00
2018-11-20T12:31:11.830Z,3.96
2018-11-20T12:36:26.489Z,3.90
2018-11-20T12:41:57.140Z,3.86
2018-11-20T12:47:24.583Z,3.88
2018-11-20T12:52:52.407Z,3.88
2018-11-20T12:58:13.995Z,3.81
2018-11-20T13:03:37.098Z,3.81
2018-11-20T13:09:04.537Z,3.78
2018-11-20T13:14:32.135Z,3.73
2018-11-20T13:19:53.058Z,3.69
2018-11-20T13:25:13.861Z,3.71
2018-11-20T13:30:35.098Z,3.68
2018-11-20T13:35:55.997Z,3.66
2018-11-20T13:41:54.318Z,3.66
2018-11-20T13:47:06.354Z,3.68
2018-11-20T13:52:27.200Z,3.70
2018-11-20T13:57:48.290Z,3.66
2018-11-20T14:03:09.378Z,3.63
2018-11-20T14:08:25.252Z,3.60
2018-11-20T14:13:47.519Z,3.56
2018-11-20T14:19:18.439Z,3.52
2018-11-20T14:24:39.255Z,3.47
2018-11-20T14:29:56.739Z,3.40
2018-11-20T14:35:21.222Z,3.41
2018-11-20T14:40:37.697Z,3.40
2018-11-20T14:46:02.589Z,3.38
2018-11-20T14:51:13.365Z,3.39
2018-11-20T14:56:26.043Z,3.38
2018-11-20T15:01:45.271Z,3.33
2018-11-20T15:07:05.642Z,3.27
2018-11-20T15:12:23.305Z,3.19
2018-11-20T15:17:41.706Z,3.18
2018-11-20T15:23:06.997Z,3.20
2018-11-20T15:28:34.967Z,3.18
2018-11-20T15:33:46.598Z,3.22
2018-11-20T15:38:55.525Z,3.23
2018-11-20T15:44:14.136Z,3.22
2018-11-20T15:49:35.351Z,3.24
2018-11-20T15:54:56.194Z,3.19
2018-11-20T16:00:17.328Z,3.19
2018-11-20T16:05:32.687Z,3.20
2018-11-20T16:11:07.047Z,3.23
2018-11-20T16:16:19.350Z,3.26
2018-11-20T16:21:40.192Z,3.26
2018-11-20T16:27:00.871Z,3.25
2018-11-20T16:32:17.929Z,3.24
2018-11-20T16:37:51.530Z,3.27
2018-11-20T16:43:12.482Z,3.29
2018-11-20T16:48:22.396Z,3.30
2018-11-20T16:53:35.271Z,3.30
2018-11-20T16:58:53.960Z,3.33
2018-11-20T17:04:14.439Z,3.32
2018-11-20T17:09:35.589Z,3.31
2018-11-20T17:14:57.514Z,3.31
2018-11-20T17:20:17.874Z,3.31
2018-11-20T17:25:47.162Z,3.32
2018-11-20T17:31:07.839Z,3.34
2018-11-20T17:36:25.624Z,3.36
2018-11-20T17:41:39.620Z,3.39
2018-11-20T17:46:50.912Z,3.40
2018-11-20T17:52:08.866Z,3.41
2018-11-20T17:57:27.566Z,3.44
2018-11-20T18:02:48.791Z,3.39
2018-11-20T18:08:13.220Z,3.38
2018-11-20T18:13:33.806Z,3.40
2018-11-20T18:18:49.363Z,3.39
2018-11-20T18:24:23.084Z,3.39
2018-11-20T18:29:30.965Z,3.41
2018-11-20T18:34:45.452Z,3.40
2018-11-20T18:40:05.822Z,3.41
2018-11-20T18:45:26.421Z,3.43
2018-11-20T18:50:42.113Z,3.43
2018-11-20T18:56:15.447Z,3.42
2018-11-20T19:01:37.026Z,3.41
2018-11-20T19:07:11.101Z,3.40
2018-11-20T19:12:32.528Z,3.42
2018-11-20T19:17:57.275Z,3.46
2018-11-20T19:23:19.130Z,3.43
2018-11-20T19:28:35.218Z,3.44
2018-11-20T19:33:56.248Z,3.44
2018-11-20T19:39:17.175Z,3.44
2018-11-20T19:44:38.639Z,3.40
2018-11-20T19:50:03.667Z,3.41
2018-11-20T19:55:24.419Z,3.42
2018-11-20T20:00:45.013Z,3.42
2018-11-20T20:06:09.269Z,3.40
2018-11-20T20:11:30.354Z,3.36
2018-11-20T20:16:46.728Z,3.35
2018-11-20T20:22:07.725Z,3.36
2018-11-20T20:27:32.675Z,3.33
2018-11-20T20:32:53.679Z,3.34
2018-11-20T20:38:14.536Z,3.39
2018-11-20T20:43:35.279Z,3.45
2018-11-20T20:48:57.330Z,3.47
2018-11-20T20:54:12.541Z,3.47
2018-11-20T20:59:47.739Z,3.43
2018-11-20T21:05:15.514Z,3.39
2018-11-20T21:10:40.388Z,3.40
2018-11-20T21:16:01.463Z,3.37
2018-11-20T21:21:22.446Z,3.39
2018-11-20T21:26:46.284Z,3.44
2018-11-20T21:32:07.039Z,3.42
2018-11-20T21:37:23.221Z,3.41
2018-11-20T21:42:44.101Z,3.37
2018-11-20T21:47:59.045Z,3.36
2018-11-20T21:53:39.070Z,3.35
2018-11-20T21:58:50.601Z,3.35
2018-11-20T22:04:11.658Z,3.40
2018-11-20T22:09:32.219Z,3.43
2018-11-20T22:14:46.818Z,3.48
2018-11-20T22:20:14.241Z,3.49
2018-11-20T22:25:29.488Z,3.45
2018-11-20T22:30:37.986Z,3.42
2018-11-20T22:35:49.722Z,3.41
2018-11-20T22:41:07.506Z,3.43
2018-11-20T22:46:41.561Z,3.43
2018-11-20T22:51:50.977Z,3.41
2018-11-20T22:57:04.211Z,3.40
2018-11-20T23:02:25.301Z,3.37
2018-11-20T23:07:44.427Z,3.36
2018-11-20T23:12:46.986Z,3.33
2018-11-20T23:17:49.495Z,3.33
2018-11-20T23:22:52.706Z,3.33
2018-11-20T23:27:55.467Z,3.30
2018-11-20T23:32:57.977Z,3.28
2018-11-20T23:38:01.599Z,3.29
2018-11-20T23:43:03.967Z,3.31
2018-11-20T23:48:06.210Z,3.33
2018-11-20T23:53:08.734Z,3.32
2018-11-20T23:58:10.919Z,3.29
